Time;durP1;ratioP1;P1;durP2;ratioP2;P2;SDS_P1;SDS_P2;PMS_P1;PMS_P2;Temp;Humidity;BMP_temperature;BMP_pressure;BME280_temperature;BME280_humidity;BME280_pressure;Samples;Min_cycle;Max_cycle;Signal;HPM_P1;HPM_P2
2023/08/18 00:00:54;;;;;;;7.53;6.00;;;;;;;24.60;73.63;99900.97;6149620;23;20480;-88
2023/08/18 00:03:21;;;;;;;8.68;5.78;;;;;;;24.54;73.32;99901.88;6124761;23;20025;-88
2023/08/18 00:05:48;;;;;;;6.57;5.55;;;;;;;24.55;73.01;99904.38;6148565;23;20043;-89
2023/08/18 00:08:15;;;;;;;7.82;5.75;;;;;;;24.57;73.06;99902.25;6174124;23;20028;-87
2023/08/18 00:10:42;;;;;;;13.48;5.93;;;;;;;24.59;73.74;99905.56;6174086;23;20450;-88
2023/08/18 00:13:09;;;;;;;11.80;5.68;;;;;;;24.56;74.10;99895.16;6148919;23;20023;-87
2023/08/18 00:15:35;;;;;;;9.05;6.07;;;;;;;24.54;74.36;99893.72;6149324;23;20800;-88
2023/08/18 00:18:02;;;;;;;8.82;6.30;;;;;;;24.52;74.93;99896.66;6149113;23;20335;-89
2023/08/18 00:20:29;;;;;;;8.45;5.88;;;;;;;24.52;74.43;99893.13;6125234;23;20028;-88
2023/08/18 00:22:56;;;;;;;8.73;6.15;;;;;;;24.52;74.62;99896.66;6125070;23;20025;-87
2023/08/18 00:25:23;;;;;;;7.53;6.05;;;;;;;24.48;74.60;99906.34;6149579;23;20021;-88
2023/08/18 00:27:49;;;;;;;6.15;5.32;;;;;;;24.46;74.64;99892.97;6124201;23;20080;-87
2023/08/18 00:30:18;;;;;;;8.57;6.43;;;;;;;24.46;73.60;99901.13;6174198;23;20342;-88
2023/08/18 00:32:45;;;;;;;8.18;6.20;;;;;;;24.45;73.61;99899.47;6173877;23;20021;-88
2023/08/18 00:35:12;;;;;;;9.23;6.22;;;;;;;24.45;73.37;99902.19;6124887;23;20024;-88
2023/08/18 00:37:39;;;;;;;11.98;6.43;;;;;;;24.43;73.70;99895.28;6100520;23;20017;-88
2023/08/18 00:40:07;;;;;;;8.00;6.50;;;;;;;24.43;73.91;99900.72;6149325;23;20389;-88
2023/08/18 00:42:34;;;;;;;8.32;5.82;;;;;;;24.41;74.21;99898.22;6099575;23;20028;-88
2023/08/18 00:45:01;;;;;;;9.98;6.53;;;;;;;24.36;74.51;99892.63;6150294;23;20021;-88
2023/08/18 00:47:28;;;;;;;7.68;6.68;;;;;;;24.34;74.75;99897.44;6149422;23;20025;-88
2023/08/18 00:49:57;;;;;;;10.15;6.00;;;;;;;24.33;74.82;99901.22;6101048;23;20059;-87
2023/08/18 00:52:24;;;;;;;9.98;6.22;;;;;;;24.30;74.71;99907.13;6148910;23;20461;-89
2023/08/18 00:54:52;;;;;;;10.40;6.43;;;;;;;24.31;74.59;99902.50;6125580;23;20017;-88
2023/08/18 00:57:19;;;;;;;10.05;5.85;;;;;;;24.29;74.79;99900.00;6123937;23;20029;-88
2023/08/18 00:59:49;;;;;;;10.68;6.38;;;;;;;24.29;74.64;99899.19;6149130;23;20465;-88
2023/08/18 01:02:17;;;;;;;8.18;6.03;;;;;;;24.27;75.14;99899.38;6148364;23;20322;-88
2023/08/18 01:04:44;;;;;;;10.45;6.97;;;;;;;24.24;75.35;99900.66;6125292;23;20019;-88
2023/08/18 01:07:12;;;;;;;9.43;6.32;;;;;;;24.23;74.84;99892.78;6175218;23;20060;-88
2023/08/18 01:09:39;;;;;;;7.20;5.80;;;;;;;24.24;74.72;99891.72;6126444;23;20028;-89
2023/08/18 01:12:23;;;;;;;8.13;5.22;;;;;;;24.14;74.80;99889.50;6151865;23;20025;-89
2023/08/18 01:14:56;;;;;;;6.13;5.53;;;;;;;24.20;74.76;99883.19;6175066;23;20048;-89
2023/08/18 01:17:35;;;;;;;;;;;;;;;23.95;75.68;99888.63;6176000;23;20405;-89
2023/08/18 01:20:03;;;;;;;8.38;6.13;;;;;;;24.15;75.02;99887.63;6126475;23;19920;-88
2023/08/18 01:22:32;;;;;;;7.72;5.47;;;;;;;24.17;75.03;99880.09;6126582;23;20025;-88
2023/08/18 01:25:00;;;;;;;7.05;5.60;;;;;;;24.15;75.13;99879.50;6175699;23;20430;-88
2023/08/18 01:27:29;;;;;;;6.03;5.38;;;;;;;24.14;74.99;99877.81;6150723;23;20389;-88
2023/08/18 01:29:57;;;;;;;7.15;6.15;;;;;;;24.12;75.26;99878.06;6151144;23;20079;-88
2023/08/18 01:32:28;;;;;;;10.80;5.97;;;;;;;24.10;75.04;99877.44;6126594;23;20037;-88
2023/08/18 01:34:58;;;;;;;7.97;6.50;;;;;;;24.08;74.94;99874.13;6151648;23;20335;-88
2023/08/18 01:37:27;;;;;;;9.73;6.82;;;;;;;24.12;74.74;99880.78;6150939;23;20420;-87
2023/08/18 01:39:54;;;;;;;9.48;6.55;;;;;;;24.07;74.82;99866.19;6151591;23;20048;-88
2023/08/18 01:42:21;;;;;;;7.95;6.50;;;;;;;24.05;75.19;99863.72;6103049;23;20013;-88
2023/08/18 01:44:48;;;;;;;7.20;6.28;;;;;;;24.04;75.02;99865.63;6127142;23;20088;-87
2023/08/18 01:47:15;;;;;;;10.23;6.78;;;;;;;24.03;75.70;99865.81;6126479;23;20032;-87
2023/08/18 01:49:42;;;;;;;11.68;6.47;;;;;;;24.03;75.06;99858.50;6176306;23;20090;-88
2023/08/18 01:52:11;;;;;;;9.13;6.95;;;;;;;24.02;74.95;99861.47;6176062;23;20067;-88
2023/08/18 01:54:38;;;;;;;9.25;6.70;;;;;;;23.96;74.49;99852.31;6103008;23;20341;-88
2023/08/18 01:57:05;;;;;;;7.05;5.93;;;;;;;23.94;75.29;99854.44;6175537;23;20028;-88
2023/08/18 01:59:32;;;;;;;7.93;5.88;;;;;;;23.91;75.46;99863.00;6150782;23;20075;-89
2023/08/18 02:01:59;;;;;;;10.93;6.30;;;;;;;23.92;75.37;99859.25;6175084;23;20357;-88
2023/08/18 02:04:26;;;;;;;9.70;6.72;;;;;;;23.95;74.43;99850.66;6125833;23;25050;-89
2023/08/18 02:06:55;;;;;;;8.88;7.00;;;;;;;23.94;74.40;99848.16;6127516;23;20025;-90
2023/08/18 02:09:21;;;;;;;9.63;6.70;;;;;;;23.94;74.31;99846.31;6125930;23;20044;-89
2023/08/18 02:11:48;;;;;;;8.52;6.57;;;;;;;23.93;74.29;99839.22;6177191;23;20029;-89
2023/08/18 02:14:15;;;;;;;8.55;6.93;;;;;;;23.95;74.41;99842.53;6151698;23;20032;-88
2023/08/18 02:16:42;;;;;;;7.88;6.90;;;;;;;23.92;74.49;99844.88;6101847;23;20028;-87
2023/08/18 02:19:13;;;;;;;9.43;6.25;;;;;;;23.86;74.94;99840.31;6175291;23;20017;-88
2023/08/18 02:21:40;;;;;;;7.60;6.00;;;;;;;23.84;75.13;99845.97;6150415;23;20527;-88
2023/08/18 02:24:10;;;;;;;8.20;6.03;;;;;;;23.77;75.08;99846.03;6175475;23;20075;-89
2023/08/18 02:26:37;;;;;;;10.52;5.97;;;;;;;23.71;75.17;99841.47;6151433;23;20031;-88
2023/08/18 02:29:04;;;;;;;10.30;6.40;;;;;;;23.76;75.17;99844.38;6177127;23;20029;-88
2023/08/18 02:31:31;;;;;;;8.27;6.60;;;;;;;23.77;75.24;99843.31;6175581;23;20353;-88
2023/08/18 02:33:57;;;;;;;10.13;6.65;;;;;;;23.74;75.29;99845.66;6125686;23;20397;-89
2023/08/18 02:36:24;;;;;;;8.40;5.95;;;;;;;23.72;75.30;99836.88;6151054;23;20021;-88
2023/08/18 02:38:51;;;;;;;7.55;6.20;;;;;;;23.71;75.04;99827.91;6126123;23;20095;-88
2023/08/18 02:41:18;;;;;;;7.47;6.50;;;;;;;23.70;75.11;99834.38;6150472;23;20321;-89
2023/08/18 02:43:48;;;;;;;12.65;6.43;;;;;;;23.63;74.98;99833.59;6150638;23;20029;-88
2023/08/18 02:46:15;;;;;;;10.93;6.47;;;;;;;23.65;74.83;99834.22;6125925;23;20032;-88
2023/08/18 02:48:42;;;;;;;8.30;6.07;;;;;;;23.61;75.18;99835.72;6126720;23;20017;-89
2023/08/18 02:51:09;;;;;;;10.52;6.60;;;;;;;23.61;75.19;99841.16;6102254;23;20036;-88
2023/08/18 02:53:39;;;;;;;7.57;5.97;;;;;;;23.56;75.10;99851.78;6101092;23;20017;-88
2023/08/18 02:56:07;;;;;;;7.47;5.97;;;;;;;23.53;75.44;99842.22;6126931;23;20104;-88
2023/08/18 02:58:36;;;;;;;9.18;6.15;;;;;;;23.52;75.33;99840.56;6150754;23;20028;-88
2023/08/18 03:01:05;;;;;;;7.80;6.20;;;;;;;23.52;75.13;99847.88;6174189;23;20063;-89
2023/08/18 03:03:33;;;;;;;10.68;6.57;;;;;;;23.53;75.27;99846.81;6175379;23;20330;-88
2023/08/18 03:06:05;;;;;;;9.02;5.90;;;;;;;23.47;74.79;99837.69;6175395;23;20021;-88
2023/08/18 03:08:32;;;;;;;12.77;6.75;;;;;;;23.47;75.19;99843.13;6150116;23;20476;-89
2023/08/18 03:11:00;;;;;;;9.27;6.00;;;;;;;23.48;74.97;99842.03;6174898;23;20437;-88
2023/08/18 03:13:27;;;;;;;9.43;5.80;;;;;;;23.48;74.84;99838.50;6174864;23;20017;-88
2023/08/18 03:15:54;;;;;;;7.07;6.32;;;;;;;23.42;74.65;99837.53;6150749;23;20518;-89
2023/08/18 03:18:22;;;;;;;9.57;6.38;;;;;;;23.34;74.90;99844.03;6150600;23;20354;-89
2023/08/18 03:20:49;;;;;;;7.13;5.65;;;;;;;23.38;74.75;99842.56;6102106;23;20033;-89
2023/08/18 03:23:18;;;;;;;9.85;6.65;;;;;;;23.39;74.65;99846.91;6125974;23;20076;-89
2023/08/18 03:25:45;;;;;;;10.07;7.15;;;;;;;23.33;75.38;99842.38;6100659;23;20025;-88
2023/08/18 03:28:12;;;;;;;8.05;6.70;;;;;;;23.29;75.66;99843.88;6151051;23;20021;-89
2023/08/18 03:30:39;;;;;;;10.70;6.20;;;;;;;23.29;75.59;99849.28;6150244;23;20473;-89
2023/08/18 03:33:06;;;;;;;9.63;6.30;;;;;;;23.27;75.38;99851.38;6150476;23;20079;-89
2023/08/18 03:35:37;;;;;;;10.05;7.45;;;;;;;23.30;74.66;99855.53;6150181;23;24550;-88
2023/08/18 03:38:04;;;;;;;10.93;6.82;;;;;;;23.32;74.44;99848.00;6126425;23;20024;-87
2023/08/18 03:40:31;;;;;;;9.35;6.22;;;;;;;23.31;74.56;99849.06;6125865;23;20031;-89
2023/08/18 03:42:58;;;;;;;7.05;6.28;;;;;;;23.29;74.75;99854.69;6125496;23;20024;-89
2023/08/18 03:45:25;;;;;;;8.02;6.13;;;;;;;23.29;74.81;99851.16;6125879;23;20021;-88
2023/08/18 03:47:53;;;;;;;10.40;5.93;;;;;;;23.32;74.65;99856.13;6175170;23;20021;-88
2023/08/18 03:50:21;;;;;;;10.35;6.70;;;;;;;23.30;74.69;99852.81;6100650;23;20020;-88
2023/08/18 03:52:48;;;;;;;11.25;6.28;;;;;;;23.27;74.68;99847.84;6125602;23;20036;-88
2023/08/18 03:55:16;;;;;;;11.80;6.53;;;;;;;23.24;74.65;99854.53;6175711;23;20017;-89
2023/08/18 03:57:43;;;;;;;15.23;6.60;;;;;;;23.25;74.50;99852.63;6101217;23;20392;-88
2023/08/18 04:00:11;;;;;;;12.48;6.18;;;;;;;23.23;74.61;99857.44;6148788;23;20025;-88
2023/08/18 04:02:42;;;;;;;9.55;6.43;;;;;;;23.18;74.65;99855.41;6147864;23;20052;-88
2023/08/18 04:05:14;;;;;;;8.00;6.43;;;;;;;23.19;74.62;99863.31;6125667;23;20040;-88
2023/08/18 04:07:41;;;;;;;11.65;6.40;;;;;;;23.19;74.18;99860.59;6146613;23;20032;-86
2023/08/18 04:10:08;;;;;;;8.73;6.38;;;;;;;23.19;74.54;99860.59;6147265;23;20055;-90
2023/08/18 04:12:35;;;;;;;7.68;6.63;;;;;;;23.20;73.99;99856.00;6122060;23;20023;-93
2023/08/18 04:15:02;;;;;;;8.57;6.82;;;;;;;23.16;73.96;99863.75;6124477;23;20103;-92
2023/08/18 04:17:29;;;;;;;9.85;6.80;;;;;;;23.10;73.57;99858.34;6125054;23;20013;-87
2023/08/18 04:19:57;;;;;;;9.88;6.65;;;;;;;23.13;73.36;99864.19;6124377;23;20025;-87
2023/08/18 04:22:24;;;;;;;8.88;7.15;;;;;;;23.12;73.41;99861.69;6147829;23;20025;-86
2023/08/18 04:24:51;;;;;;;14.13;7.53;;;;;;;23.11;73.02;99857.31;6125335;23;20327;-89
2023/08/18 04:27:20;;;;;;;9.40;6.28;;;;;;;23.09;73.04;99862.94;6122238;23;20025;-91
2023/08/18 04:29:47;;;;;;;8.60;6.30;;;;;;;23.07;73.01;99856.09;6099106;23;20025;-90
2023/08/18 04:32:14;;;;;;;8.38;6.47;;;;;;;23.06;73.14;99860.66;6122383;23;20068;-90
2023/08/18 04:34:41;;;;;;;7.70;6.07;;;;;;;23.04;73.59;99862.75;6098970;23;20335;-90
2023/08/18 04:37:09;;;;;;;9.20;6.38;;;;;;;23.02;73.11;99862.13;6099247;23;20020;-90
2023/08/18 04:39:36;;;;;;;8.38;6.03;;;;;;;23.05;73.16;99867.16;6122903;23;20060;-89
2023/08/18 04:42:04;;;;;;;11.43;6.10;;;;;;;23.01;73.74;99875.91;6123291;23;20021;-89
2023/08/18 04:44:33;;;;;;;10.40;6.88;;;;;;;23.02;73.41;99881.09;6124389;23;20331;-87
2023/08/18 04:47:03;;;;;;;8.65;6.55;;;;;;;23.00;73.61;99887.78;6173411;23;20441;-88
2023/08/18 04:49:37;;;;;;;9.48;6.10;;;;;;;22.88;73.62;99885.72;6131636;23;20617;-89
2023/08/18 04:52:07;;;;;;;7.95;5.63;;;;;;;22.94;74.02;99884.84;6172291;23;20028;-92
2023/08/18 04:54:35;;;;;;;10.23;6.07;;;;;;;22.94;73.96;99892.16;6146547;23;20020;-92
2023/08/18 04:57:03;;;;;;;10.68;8.45;;;;;;;22.92;73.69;99896.94;6148584;23;20029;-88
2023/08/18 04:59:31;;;;;;;10.18;6.55;;;;;;;22.94;73.35;99894.84;6149095;23;20032;-86
2023/08/18 05:02:01;;;;;;;10.30;6.40;;;;;;;22.95;73.64;99888.41;6149540;23;20104;-87
2023/08/18 05:04:28;;;;;;;9.65;6.15;;;;;;;22.99;73.65;99894.25;6173361;23;20021;-87
2023/08/18 05:06:55;;;;;;;7.57;5.95;;;;;;;23.00;73.75;99891.34;6148194;23;20755;-89
2023/08/18 05:09:23;;;;;;;8.63;6.72;;;;;;;23.03;73.67;99895.50;6146952;23;20029;-92
2023/08/18 05:11:53;;;;;;;6.72;5.65;;;;;;;23.05;72.54;99901.50;6146865;23;20024;-91
2023/08/18 05:14:21;;;;;;;9.55;6.13;;;;;;;23.01;72.56;99898.41;6121520;23;20052;-91
2023/08/18 05:16:47;;;;;;;9.18;5.38;;;;;;;23.07;71.89;99892.13;6122071;23;20029;-92
2023/08/18 05:19:14;;;;;;;10.82;5.93;;;;;;;23.13;72.13;99898.56;6122119;23;20055;-90
2023/08/18 05:21:41;;;;;;;6.75;5.53;;;;;;;23.12;71.92;99886.88;6120807;23;20013;-90
2023/08/18 05:24:08;;;;;;;11.15;6.13;;;;;;;23.13;71.61;99893.97;6120778;23;20665;-90
2023/08/18 05:26:35;;;;;;;7.78;5.78;;;;;;;23.08;71.14;99896.50;6120874;23;20017;-89
2023/08/18 05:29:02;;;;;;;8.70;5.13;;;;;;;23.09;71.17;99891.91;6121574;23;20021;-90
2023/08/18 05:31:30;;;;;;;9.55;5.90;;;;;;;23.10;70.62;99899.84;6145333;23;20027;-90
2023/08/18 05:33:57;;;;;;;6.15;5.55;;;;;;;23.10;70.44;99899.84;6097021;23;20029;-90
2023/08/18 05:36:24;;;;;;;8.30;5.38;;;;;;;23.14;70.45;99902.94;6097960;23;20021;-87
2023/08/18 05:38:51;;;;;;;6.75;4.60;;;;;;;23.15;70.21;99904.56;6099235;23;20100;-90
2023/08/18 05:41:18;;;;;;;9.45;5.45;;;;;;;23.12;69.52;99905.00;6123322;23;20025;-88
2023/08/18 05:43:46;;;;;;;7.97;5.53;;;;;;;23.11;69.57;99912.31;6146865;23;20472;-88
2023/08/18 05:46:13;;;;;;;9.38;5.30;;;;;;;23.16;70.00;99908.97;6124575;23;20025;-89
2023/08/18 05:48:40;;;;;;;6.10;5.45;;;;;;;23.14;69.29;99903.75;6122416;23;20052;-89
2023/08/18 05:51:07;;;;;;;10.82;5.90;;;;;;;23.18;69.15;99910.41;6147689;23;20349;-90
2023/08/18 05:53:34;;;;;;;12.43;5.93;;;;;;;23.16;69.24;99903.53;6123969;23;20025;-91
2023/08/18 05:56:01;;;;;;;8.73;4.82;;;;;;;23.17;68.96;99907.91;6100040;23;20401;-91
2023/08/18 05:58:28;;;;;;;8.07;5.43;;;;;;;23.16;69.12;99911.69;6147414;23;20020;-90
2023/08/18 06:00:55;;;;;;;8.48;5.38;;;;;;;23.18;69.50;99902.28;6123791;23;20315;-91
2023/08/18 06:03:22;;;;;;;7.93;5.03;;;;;;;23.16;69.19;99900.84;6145694;23;20091;-92
2023/08/18 06:05:49;;;;;;;7.50;5.00;;;;;;;23.10;68.87;99905.25;6124489;23;20017;-90
2023/08/18 06:08:16;;;;;;;7.43;5.07;;;;;;;23.19;69.14;99913.94;6147926;23;20122;-90
2023/08/18 06:10:43;;;;;;;6.38;5.15;;;;;;;23.19;69.10;99908.53;6099506;23;20165;-89
2023/08/18 06:13:10;;;;;;;7.88;4.95;;;;;;;23.22;68.84;99910.78;6149324;23;20795;-88
2023/08/18 06:15:37;;;;;;;8.65;5.63;;;;;;;23.26;68.83;99912.03;6149737;23;20469;-89
2023/08/18 06:18:04;;;;;;;9.20;5.38;;;;;;;23.30;68.89;99909.72;6149861;23;20033;-87
2023/08/18 06:20:31;;;;;;;10.13;5.43;;;;;;;23.33;69.52;99907.41;6173537;23;20319;-89
2023/08/18 06:22:58;;;;;;;8.02;5.10;;;;;;;23.33;69.05;99910.13;6124226;23;20025;-89
2023/08/18 06:25:24;;;;;;;7.45;4.95;;;;;;;23.37;68.97;99908.63;6148128;23;20511;-89
2023/08/18 06:27:51;;;;;;;7.95;4.50;;;;;;;23.30;68.89;99913.25;6172335;23;20048;-90
2023/08/18 06:30:19;;;;;;;8.73;4.65;;;;;;;23.32;69.05;99915.75;6098207;23;20025;-91
2023/08/18 06:32:45;;;;;;;6.68;4.63;;;;;;;23.36;69.41;99925.13;6122558;23;20441;-90
2023/08/18 06:35:12;;;;;;;11.23;5.05;;;;;;;23.36;68.51;99917.81;6121413;23;20028;-91
2023/08/18 06:37:39;;;;;;;5.13;4.55;;;;;;;23.39;68.95;99925.50;6099093;23;20052;-91
2023/08/18 06:40:07;;;;;;;8.00;5.43;;;;;;;23.38;68.21;99923.00;6147866;23;20075;-90
2023/08/18 06:42:34;;;;;;;9.95;4.95;;;;;;;23.42;68.46;99918.81;6124132;23;20025;-91
2023/08/18 06:45:01;;;;;;;4.75;4.18;;;;;;;23.48;68.72;99917.94;6148603;23;20025;-91
2023/08/18 06:47:28;;;;;;;11.90;4.43;;;;;;;23.47;68.23;99912.75;6099952;23;20017;-91
2023/08/18 06:49:54;;;;;;;5.85;4.07;;;;;;;23.49;67.98;99925.03;6093338;23;20025;-91
2023/08/18 06:52:21;;;;;;;6.00;4.35;;;;;;;23.50;67.85;99921.25;6147869;23;20060;-91
2023/08/18 06:54:49;;;;;;;5.82;4.13;;;;;;;23.51;68.23;99924.81;6099848;23;20093;-90
2023/08/18 06:57:16;;;;;;;6.28;4.10;;;;;;;23.59;68.05;99929.97;6123479;23;20096;-90
2023/08/18 06:59:43;;;;;;;6.57;4.22;;;;;;;23.52;68.35;99927.31;6120997;23;20047;-90
2023/08/18 07:02:10;;;;;;;4.75;3.90;;;;;;;23.61;68.01;99923.28;6123312;23;20457;-86
2023/08/18 07:04:37;;;;;;;5.07;4.07;;;;;;;23.66;68.22;99917.22;6173588;23;20101;-87
2023/08/18 07:07:03;;;;;;;11.18;4.80;;;;;;;23.66;68.00;99910.94;6125946;23;20051;-91
2023/08/18 07:09:30;;;;;;;6.18;4.22;;;;;;;23.68;67.58;99911.56;6149090;23;20449;-91
2023/08/18 07:11:58;;;;;;;5.90;4.00;;;;;;;23.72;67.79;99910.09;6123770;23;20465;-90
2023/08/18 07:14:25;;;;;;;6.53;4.13;;;;;;;23.76;67.47;99912.16;6170718;23;20661;-89
2023/08/18 07:16:52;;;;;;;6.80;4.25;;;;;;;23.72;68.17;99912.78;6099604;23;20075;-92
2023/08/18 07:19:19;;;;;;;6.47;3.92;;;;;;;23.74;68.12;99916.16;6122333;23;20021;-92
2023/08/18 07:21:46;;;;;;;6.95;4.25;;;;;;;23.77;67.88;99913.00;6147304;23;20013;-92
2023/08/18 07:24:13;;;;;;;7.78;4.25;;;;;;;23.80;67.84;99912.53;6150791;23;20033;-92
2023/08/18 07:26:39;;;;;;;5.30;4.07;;;;;;;23.83;67.82;99918.34;6125001;23;20385;-91
2023/08/18 07:29:06;;;;;;;8.27;3.75;;;;;;;23.85;67.54;99911.91;6147854;23;20016;-92
2023/08/18 07:31:33;;;;;;;6.78;3.80;;;;;;;23.89;67.53;99910.38;6099370;23;20028;-92
2023/08/18 07:34:00;;;;;;;8.65;4.30;;;;;;;23.94;67.70;99910.53;6123426;23;20377;-91
2023/08/18 07:36:27;;;;;;;5.57;3.67;;;;;;;23.96;68.11;99912.00;6123951;23;20347;-93
2023/08/18 07:38:54;;;;;;;5.05;3.83;;;;;;;23.98;67.85;99912.59;6124984;23;20461;-88
2023/08/18 07:41:21;;;;;;;5.35;3.60;;;;;;;24.04;67.50;99916.31;6149837;23;20021;-88
2023/08/18 07:43:48;;;;;;;5.03;3.83;;;;;;;24.04;67.30;99917.16;6175250;23;20071;-88
2023/08/18 07:46:15;;;;;;;6.15;3.67;;;;;;;24.11;66.81;99927.09;6173710;23;20075;-89
2023/08/18 07:48:44;;;;;;;7.40;3.65;;;;;;;24.08;66.78;99917.53;6121842;23;20036;-89
2023/08/18 07:51:11;;;;;;;4.60;3.50;;;;;;;24.10;66.73;99911.91;6125596;23;20024;-90
2023/08/18 07:53:38;;;;;;;5.18;3.60;;;;;;;24.16;66.50;99919.97;6124394;23;20075;-89
2023/08/18 07:56:05;;;;;;;9.52;3.40;;;;;;;24.15;66.56;99917.47;6124689;23;20017;-91
2023/08/18 07:58:32;;;;;;;4.88;3.40;;;;;;;24.14;66.28;99913.09;6148730;23;20468;-88
2023/08/18 08:00:59;;;;;;;4.90;3.38;;;;;;;24.21;66.47;99919.28;6149614;23;20025;-88
2023/08/18 08:03:26;;;;;;;7.25;3.40;;;;;;;24.21;66.16;99914.69;6148074;23;20024;-88
2023/08/18 08:05:53;;;;;;;3.70;3.03;;;;;;;24.24;66.18;99919.66;6149373;23;20025;-91
2023/08/18 08:08:20;;;;;;;4.32;3.30;;;;;;;24.25;65.76;99921.34;6124311;23;20025;-89
2023/08/18 08:10:47;;;;;;;5.63;3.33;;;;;;;24.31;66.42;99916.06;6147017;23;20049;-88
2023/08/18 08:13:13;;;;;;;4.43;2.75;;;;;;;24.29;66.71;99908.16;6149875;23;20072;-88
2023/08/18 08:15:45;;;;;;;5.07;3.30;;;;;;;24.33;66.25;99914.78;6149078;23;20036;-88
2023/08/18 08:18:15;;;;;;;3.90;3.50;;;;;;;24.31;65.94;99906.03;6101117;23;20369;-89
2023/08/18 08:20:42;;;;;;;4.72;3.10;;;;;;;24.36;65.61;99914.34;6124182;23;20400;-88
2023/08/18 08:23:09;;;;;;;5.13;2.78;;;;;;;24.41;66.32;99908.25;6123345;23;20028;-89
2023/08/18 08:25:37;;;;;;;3.53;2.78;;;;;;;24.44;66.04;99908.63;6100326;23;20072;-89
2023/08/18 08:28:04;;;;;;;6.43;3.30;;;;;;;24.49;66.22;99916.13;6096841;23;20024;-89
2023/08/18 08:30:31;;;;;;;6.78;3.10;;;;;;;24.50;66.47;99908.81;6147511;23;20481;-88
2023/08/18 08:33:06;;;;;;;3.83;3.10;;;;;;;24.51;66.51;99899.63;6149635;23;20023;-92
2023/08/18 08:35:33;;;;;;;4.30;3.10;;;;;;;24.56;66.53;99910.63;6148507;23;20028;-91
2023/08/18 08:38:00;;;;;;;4.68;3.30;;;;;;;24.56;66.30;99903.31;6123925;23;20020;-91
2023/08/18 08:40:27;;;;;;;4.35;3.20;;;;;;;24.62;66.36;99905.13;6147103;23;20099;-92
2023/08/18 08:42:56;;;;;;;3.60;3.20;;;;;;;24.65;66.35;99904.69;6147065;23;20394;-92
2023/08/18 08:45:30;;;;;;;3.42;2.65;;;;;;;24.67;66.19;99896.28;6101960;23;20021;-91
2023/08/18 08:47:59;;;;;;;6.93;3.13;;;;;;;24.68;65.77;99893.38;6123143;23;20024;-91
2023/08/18 08:50:29;;;;;;;5.97;3.05;;;;;;;24.71;66.13;99896.69;6147411;23;20017;-87
2023/08/18 08:53:00;;;;;;;4.17;3.40;;;;;;;24.73;65.71;99892.69;6149789;23;20028;-87
2023/08/18 08:55:31;;;;;;;4.18;2.78;;;;;;;24.79;64.85;99890.94;6169664;23;20069;-89
2023/08/18 08:57:59;;;;;;;4.65;3.08;;;;;;;24.79;65.00;99891.78;6124193;23;20048;-91
2023/08/18 09:00:27;;;;;;;4.32;2.97;;;;;;;24.82;65.18;99895.91;6122686;23;20029;-91
2023/08/18 09:02:59;;;;;;;4.95;3.17;;;;;;;24.84;64.68;99891.09;6149019;23;20485;-91
2023/08/18 09:05:29;;;;;;;2.80;2.60;;;;;;;24.87;64.10;99894.16;6147799;23;20076;-90
2023/08/18 09:07:56;;;;;;;5.32;2.70;;;;;;;24.85;63.43;99885.41;6100127;23;20349;-91
2023/08/18 09:10:25;;;;;;;3.75;2.70;;;;;;;24.90;63.68;99890.97;6147518;23;20021;-90
2023/08/18 09:12:52;;;;;;;5.53;2.85;;;;;;;24.95;63.86;99895.75;6146951;23;20100;-85
2023/08/18 09:15:19;;;;;;;2.97;2.53;;;;;;;24.96;64.37;99891.13;6149158;23;20025;-85
2023/08/18 09:17:46;;;;;;;6.88;2.92;;;;;;;24.99;62.66;99894.25;6150057;23;20328;-86
2023/08/18 09:20:14;;;;;;;5.03;2.88;;;;;;;25.03;62.57;99900.84;6147763;23;20327;-86
2023/08/18 09:22:41;;;;;;;3.70;2.35;;;;;;;25.04;62.91;99886.22;6124015;23;20027;-86
2023/08/18 09:25:12;;;;;;;4.25;2.92;;;;;;;25.09;63.64;99893.69;6149205;23;20017;-87
2023/08/18 09:27:39;;;;;;;4.20;2.45;;;;;;;25.12;63.22;99894.06;6149420;23;20368;-87
2023/08/18 09:30:06;;;;;;;3.25;2.38;;;;;;;25.15;61.71;99895.47;6150341;23;20025;-90
2023/08/18 09:32:35;;;;;;;4.72;2.50;;;;;;;25.19;62.47;99893.16;6124708;23;20535;-90
2023/08/18 09:35:19;;;;;;;2.63;2.33;;;;;;;25.23;62.72;99888.94;6124611;23;20072;-91
2023/08/18 09:37:56;;;;;;;2.53;2.33;;;;;;;25.23;62.35;99886.22;6092155;23;20024;-89
2023/08/18 09:40:24;;;;;;;2.72;2.22;;;;;;;25.29;62.25;99888.00;6133360;23;20048;-89
2023/08/18 09:42:51;;;;;;;4.20;2.25;;;;;;;25.34;61.90;99886.25;6138279;23;20079;-90
2023/08/18 09:45:26;;;;;;;4.72;3.00;;;;;;;25.32;61.92;99874.78;6072923;23;20028;-91
2023/08/18 09:47:56;;;;;;;3.75;2.42;;;;;;;25.37;61.87;99874.09;6067518;23;20360;-91
2023/08/18 09:50:25;;;;;;;5.63;2.40;;;;;;;25.42;61.80;99876.94;6148210;23;20096;-93
2023/08/18 09:52:57;;;;;;;5.60;2.38;;;;;;;25.43;61.06;99870.44;6099433;23;20029;-91
2023/08/18 09:55:34;;;;;;;2.63;2.03;;;;;;;25.39;61.54;99871.97;6121125;23;20026;-89
2023/08/18 09:58:06;;;;;;;2.35;2.08;;;;;;;25.44;61.43;99863.97;6101172;23;20028;-89
2023/08/18 10:00:34;;;;;;;3.50;2.38;;;;;;;25.51;61.33;99870.09;6124007;23;20452;-91
2023/08/18 10:03:03;;;;;;;4.97;2.53;;;;;;;25.52;60.36;99870.94;6149449;23;20040;-89
2023/08/18 10:05:31;;;;;;;5.47;2.40;;;;;;;25.53;60.67;99865.25;6149811;23;20025;-91
2023/08/18 10:07:59;;;;;;;4.78;2.80;;;;;;;25.57;60.53;99868.38;6124479;23;20028;-92
2023/08/18 10:10:25;;;;;;;2.53;2.33;;;;;;;25.59;60.25;99868.09;6124727;23;20096;-92
2023/08/18 10:12:52;;;;;;;5.15;2.05;;;;;;;25.58;60.01;99859.13;6124515;23;20032;-91
2023/08/18 10:15:20;;;;;;;3.17;2.13;;;;;;;25.60;60.38;99854.28;6150171;23;20488;-91
2023/08/18 10:17:46;;;;;;;3.17;2.00;;;;;;;25.64;60.36;99860.91;6101800;23;20017;-92
2023/08/18 10:20:14;;;;;;;3.95;2.38;;;;;;;25.67;59.61;99863.19;6123377;23;20024;-91
2023/08/18 10:22:43;;;;;;;3.60;2.20;;;;;;;25.70;59.69;99864.59;6150346;23;20041;-87
2023/08/18 10:25:23;;;;;;;3.03;2.10;;;;;;;25.69;59.44;99863.75;6127406;23;20444;-87
2023/08/18 10:27:50;;;;;;;4.60;2.30;;;;;;;25.76;59.83;99855.50;6125288;23;20025;-88
2023/08/18 10:30:24;;;;;;;3.08;2.25;;;;;;;25.71;59.50;99855.38;6150332;23;20021;-87
2023/08/18 10:32:52;;;;;;;2.35;2.15;;;;;;;25.78;60.10;99854.19;6174434;23;20337;-89
2023/08/18 10:35:27;;;;;;;3.35;2.30;;;;;;;25.77;59.79;99854.41;6099881;23;20075;-89
2023/08/18 10:37:55;;;;;;;6.25;2.20;;;;;;;25.82;59.66;99851.81;6125931;23;20056;-90
2023/08/18 10:40:26;;;;;;;4.63;2.15;;;;;;;25.84;59.71;99855.13;6099706;23;20504;-91
2023/08/18 10:43:07;;;;;;;5.63;2.25;;;;;;;25.85;59.27;99858.72;6100756;23;20346;-93
2023/08/18 10:45:34;;;;;;;3.28;2.28;;;;;;;25.88;59.55;99850.09;6101862;23;20021;-91
2023/08/18 10:48:03;;;;;;;3.80;2.60;;;;;;;25.90;58.67;99851.53;6125970;23;20095;-92
2023/08/18 10:50:33;;;;;;;2.65;2.08;;;;;;;25.93;58.54;99850.22;6150390;23;20092;-89
2023/08/18 10:53:03;;;;;;;2.70;2.30;;;;;;;25.93;58.86;99847.50;6102164;23;20382;-90
2023/08/18 10:55:30;;;;;;;3.70;2.35;;;;;;;25.97;58.04;99845.94;6125398;23;20028;-91
2023/08/18 10:57:57;;;;;;;2.55;2.20;;;;;;;25.96;58.82;99845.13;6125957;23;20021;-92
2023/08/18 11:00:24;;;;;;;2.42;2.13;;;;;;;25.99;59.28;99843.81;6124758;23;20474;-91
2023/08/18 11:02:51;;;;;;;4.03;2.40;;;;;;;26.04;59.59;99837.69;6125449;23;20323;-91
2023/08/18 11:05:22;;;;;;;3.63;2.35;;;;;;;26.06;58.69;99832.84;6150066;23;20027;-94
2023/08/18 11:07:52;;;;;;;4.30;2.22;;;;;;;26.07;58.50;99827.13;6100644;23;20024;-90
2023/08/18 11:10:22;;;;;;;3.17;2.40;;;;;;;26.07;58.62;99827.13;6175892;23;20071;-94
2023/08/18 11:12:52;;;;;;;4.68;2.15;;;;;;;26.12;58.79;99829.97;6125645;23;20456;-91
2023/08/18 11:15:22;;;;;;;2.20;2.00;;;;;;;26.15;58.15;99823.22;6103668;23;20356;-90
2023/08/18 11:17:50;;;;;;;3.47;2.40;;;;;;;26.16;57.76;99814.84;6103668;23;20025;-90
2023/08/18 11:20:17;;;;;;;3.45;2.78;;;;;;;26.18;58.58;99809.13;6150520;23;20025;-91
2023/08/18 11:22:47;;;;;;;4.20;2.45;;;;;;;26.22;58.42;99809.50;6124628;23;20033;-91
2023/08/18 11:25:16;;;;;;;4.93;2.20;;;;;;;26.22;56.79;99801.34;6101613;23;20025;-91
2023/08/18 11:27:44;;;;;;;5.55;2.17;;;;;;;26.26;56.67;99802.53;6149888;23;20096;-93
2023/08/18 11:30:13;;;;;;;2.85;2.08;;;;;;;26.28;56.76;99797.63;6124370;23;20021;-93
2023/08/18 11:32:40;;;;;;;4.68;2.20;;;;;;;26.29;57.76;99796.59;6124515;23;20021;-87
2023/08/18 11:35:09;;;;;;;3.10;2.33;;;;;;;26.30;56.63;99798.22;6098984;23;20103;-89